sensor_id;sensor_type;location;lat;lon;timestamp;temperature;humidity
1367;DHT22;16877;48.810;9.282;2023-03-14T00:01:11;19.00;57.50
1367;DHT22;16877;48.810;9.282;2023-03-14T00:03:39;18.90;57.60
1367;DHT22;16877;48.810;9.282;2023-03-14T00:06:09;18.90;57.70
1367;DHT22;16877;48.810;9.282;2023-03-14T00:08:39;18.90;57.70
1367;DHT22;16877;48.810;9.282;2023-03-14T00:11:07;18.90;57.70
1367;DHT22;16877;48.810;9.282;2023-03-14T00:13:35;19.00;57.80
1367;DHT22;16877;48.810;9.282;2023-03-14T00:16:03;19.00;57.90
1367;DHT22;16877;48.810;9.282;2023-03-14T00:18:31;18.90;57.80
1367;DHT22;16877;48.810;9.282;2023-03-14T00:21:00;19.00;57.80
1367;DHT22;16877;48.810;9.282;2023-03-14T00:23:31;18.90;57.80
1367;DHT22;16877;48.810;9.282;2023-03-14T00:25:59;19.00;57.90
1367;DHT22;16877;48.810;9.282;2023-03-14T00:28:35;19.00;58.00
1367;DHT22;16877;48.810;9.282;2023-03-14T00:31:03;19.00;58.00
1367;DHT22;16877;48.810;9.282;2023-03-14T00:33:31;18.90;57.90
1367;DHT22;16877;48.810;9.282;2023-03-14T00:36:04;18.90;57.90
1367;DHT22;16877;48.810;9.282;2023-03-14T00:38:36;19.00;57.90
1367;DHT22;16877;48.810;9.282;2023-03-14T00:41:06;19.00;57.80
1367;DHT22;16877;48.810;9.282;2023-03-14T00:43:34;19.00;57.60
1367;DHT22;16877;48.810;9.282;2023-03-14T00:46:01;19.10;57.60
1367;DHT22;16877;48.810;9.282;2023-03-14T00:48:28;19.10;57.40
1367;DHT22;16877;48.810;9.282;2023-03-14T00:50:56;19.20;57.90
1367;DHT22;16877;48.810;9.282;2023-03-14T00:53:24;19.10;57.20
1367;DHT22;16877;48.810;9.282;2023-03-14T00:55:53;19.10;57.10
1367;DHT22;16877;48.810;9.282;2023-03-14T00:58:20;19.10;57.10
1367;DHT22;16877;48.810;9.282;2023-03-14T01:00:48;19.10;57.10
1367;DHT22;16877;48.810;9.282;2023-03-14T01:03:31;19.10;57.10
1367;DHT22;16877;48.810;9.282;2023-03-14T01:06:07;19.10;57.10
1367;DHT22;16877;48.810;9.282;2023-03-14T01:08:34;19.10;57.00
1367;DHT22;16877;48.810;9.282;2023-03-14T01:11:07;19.10;56.90
1367;DHT22;16877;48.810;9.282;2023-03-14T01:13:35;19.10;57.20
1367;DHT22;16877;48.810;9.282;2023-03-14T01:16:15;19.00;56.70
1367;DHT22;16877;48.810;9.282;2023-03-14T01:19:03;19.10;56.80
1367;DHT22;16877;48.810;9.282;2023-03-14T01:21:32;19.10;56.70
1367;DHT22;16877;48.810;9.282;2023-03-14T01:24:02;19.10;56.70
1367;DHT22;16877;48.810;9.282;2023-03-14T01:26:32;19.20;56.90
1367;DHT22;16877;48.810;9.282;2023-03-14T01:29:01;19.20;56.90
1367;DHT22;16877;48.810;9.282;2023-03-14T01:31:29;19.10;56.70
1367;DHT22;16877;48.810;9.282;2023-03-14T01:33:56;19.10;56.70
1367;DHT22;16877;48.810;9.282;2023-03-14T01:36:24;19.20;56.70
1367;DHT22;16877;48.810;9.282;2023-03-14T01:38:51;19.20;56.70
1367;DHT22;16877;48.810;9.282;2023-03-14T01:41:20;19.30;56.70
1367;DHT22;16877;48.810;9.282;2023-03-14T01:44:04;19.30;56.60
1367;DHT22;16877;48.810;9.282;2023-03-14T01:46:36;19.30;56.50
1367;DHT22;16877;48.810;9.282;2023-03-14T01:49:08;19.30;56.40
1367;DHT22;16877;48.810;9.282;2023-03-14T01:51:39;19.30;56.40
1367;DHT22;16877;48.810;9.282;2023-03-14T01:54:11;19.30;56.40
1367;DHT22;16877;48.810;9.282;2023-03-14T01:56:41;19.30;56.40
1367;DHT22;16877;48.810;9.282;2023-03-14T01:59:12;19.30;56.30
1367;DHT22;16877;48.810;9.282;2023-03-14T02:01:43;19.30;56.20
1367;DHT22;16877;48.810;9.282;2023-03-14T02:04:11;19.30;56.10
1367;DHT22;16877;48.810;9.282;2023-03-14T02:06:45;19.20;55.90
1367;DHT22;16877;48.810;9.282;2023-03-14T02:09:14;19.20;56.00
1367;DHT22;16877;48.810;9.282;2023-03-14T02:11:41;19.20;55.90
1367;DHT22;16877;48.810;9.282;2023-03-14T02:14:17;19.20;55.90
1367;DHT22;16877;48.810;9.282;2023-03-14T02:16:46;19.20;55.80
1367;DHT22;16877;48.810;9.282;2023-03-14T02:19:14;19.20;55.80
1367;DHT22;16877;48.810;9.282;2023-03-14T02:21:49;19.20;55.70
1367;DHT22;16877;48.810;9.282;2023-03-14T02:24:23;19.20;55.60
1367;DHT22;16877;48.810;9.282;2023-03-14T02:27:05;19.20;55.60
1367;DHT22;16877;48.810;9.282;2023-03-14T02:29:53;19.20;55.70
1367;DHT22;16877;48.810;9.282;2023-03-14T02:32:22;19.20;55.70
1367;DHT22;16877;48.810;9.282;2023-03-14T02:34:54;19.20;55.60
1367;DHT22;16877;48.810;9.282;2023-03-14T02:37:35;19.20;55.60
1367;DHT22;16877;48.810;9.282;2023-03-14T02:40:06;19.20;55.60
1367;DHT22;16877;48.810;9.282;2023-03-14T02:42:36;19.20;55.50
1367;DHT22;16877;48.810;9.282;2023-03-14T02:45:38;19.20;55.60
1367;DHT22;16877;48.810;9.282;2023-03-14T02:48:09;19.20;55.50
1367;DHT22;16877;48.810;9.282;2023-03-14T02:50:38;19.20;55.50
1367;DHT22;16877;48.810;9.282;2023-03-14T02:53:05;19.10;55.50
1367;DHT22;16877;48.810;9.282;2023-03-14T02:55:33;19.10;55.40
1367;DHT22;16877;48.810;9.282;2023-03-14T02:58:17;19.10;55.40
1367;DHT22;16877;48.810;9.282;2023-03-14T03:00:46;19.10;55.50
1367;DHT22;16877;48.810;9.282;2023-03-14T03:03:14;19.10;55.40
1367;DHT22;16877;48.810;9.282;2023-03-14T03:05:42;19.10;55.30
1367;DHT22;16877;48.810;9.282;2023-03-14T03:08:09;19.10;55.30
1367;DHT22;16877;48.810;9.282;2023-03-14T03:10:37;19.10;55.30
1367;DHT22;16877;48.810;9.282;2023-03-14T03:13:05;19.10;55.30
1367;DHT22;16877;48.810;9.282;2023-03-14T03:15:34;19.20;55.30
1367;DHT22;16877;48.810;9.282;2023-03-14T03:18:01;19.10;55.20
1367;DHT22;16877;48.810;9.282;2023-03-14T03:20:28;19.10;55.10
1367;DHT22;16877;48.810;9.282;2023-03-14T03:22:56;19.10;55.10
1367;DHT22;16877;48.810;9.282;2023-03-14T03:25:25;19.00;55.10
1367;DHT22;16877;48.810;9.282;2023-03-14T03:27:54;19.00;55.20
1367;DHT22;16877;48.810;9.282;2023-03-14T03:30:22;19.00;55.20
1367;DHT22;16877;48.810;9.282;2023-03-14T03:32:52;19.00;55.10
1367;DHT22;16877;48.810;9.282;2023-03-14T03:35:40;19.00;54.90
1367;DHT22;16877;48.810;9.282;2023-03-14T03:38:23;19.00;54.90
1367;DHT22;16877;48.810;9.282;2023-03-14T03:40:51;19.00;55.00
1367;DHT22;16877;48.810;9.282;2023-03-14T03:43:18;18.90;54.90
1367;DHT22;16877;48.810;9.282;2023-03-14T03:45:46;18.90;54.80
1367;DHT22;16877;48.810;9.282;2023-03-14T03:48:15;19.00;54.70
1367;DHT22;16877;48.810;9.282;2023-03-14T03:50:45;19.00;54.70
1367;DHT22;16877;48.810;9.282;2023-03-14T03:53:12;19.00;55.20
1367;DHT22;16877;48.810;9.282;2023-03-14T03:55:40;19.00;54.50
1367;DHT22;16877;48.810;9.282;2023-03-14T03:58:07;19.00;54.40
1367;DHT22;16877;48.810;9.282;2023-03-14T04:00:35;18.90;54.00
1367;DHT22;16877;48.810;9.282;2023-03-14T04:03:02;18.90;54.00
1367;DHT22;16877;48.810;9.282;2023-03-14T04:05:31;19.00;54.00
1367;DHT22;16877;48.810;9.282;2023-03-14T04:07:59;18.90;53.70
1367;DHT22;16877;48.810;9.282;2023-03-14T04:10:27;19.00;53.50
1367;DHT22;16877;48.810;9.282;2023-03-14T04:12:55;18.90;53.20
1367;DHT22;16877;48.810;9.282;2023-03-14T04:15:23;18.80;53.10
1367;DHT22;16877;48.810;9.282;2023-03-14T04:17:50;18.80;53.30
1367;DHT22;16877;48.810;9.282;2023-03-14T04:20:18;18.90;53.30
1367;DHT22;16877;48.810;9.282;2023-03-14T04:22:47;18.90;53.30
1367;DHT22;16877;48.810;9.282;2023-03-14T04:25:15;18.90;53.20
1367;DHT22;16877;48.810;9.282;2023-03-14T04:27:45;18.90;53.10
1367;DHT22;16877;48.810;9.282;2023-03-14T04:30:13;18.90;53.00
1367;DHT22;16877;48.810;9.282;2023-03-14T04:32:40;18.90;52.80
1367;DHT22;16877;48.810;9.282;2023-03-14T04:35:08;18.90;52.80
1367;DHT22;16877;48.810;9.282;2023-03-14T04:37:35;18.80;52.50
1367;DHT22;16877;48.810;9.282;2023-03-14T04:40:07;18.80;52.60
1367;DHT22;16877;48.810;9.282;2023-03-14T04:42:34;18.70;52.50
1367;DHT22;16877;48.810;9.282;2023-03-14T04:45:02;18.80;52.60
1367;DHT22;16877;48.810;9.282;2023-03-14T04:47:29;18.80;52.40
1367;DHT22;16877;48.810;9.282;2023-03-14T04:49:57;18.70;52.20
1367;DHT22;16877;48.810;9.282;2023-03-14T04:52:25;18.70;52.30
1367;DHT22;16877;48.810;9.282;2023-03-14T04:54:53;18.70;52.20
1367;DHT22;16877;48.810;9.282;2023-03-14T04:57:22;18.70;52.30
1367;DHT22;16877;48.810;9.282;2023-03-14T04:59:50;18.70;52.20
1367;DHT22;16877;48.810;9.282;2023-03-14T05:02:17;18.70;52.10
1367;DHT22;16877;48.810;9.282;2023-03-14T05:04:45;18.70;52.00
1367;DHT22;16877;48.810;9.282;2023-03-14T05:07:12;18.70;52.00
1367;DHT22;16877;48.810;9.282;2023-03-14T05:09:40;18.60;51.90
1367;DHT22;16877;48.810;9.282;2023-03-14T05:12:07;18.60;51.90
1367;DHT22;16877;48.810;9.282;2023-03-14T05:14:43;18.60;51.90
1367;DHT22;16877;48.810;9.282;2023-03-14T05:17:10;18.60;52.00
1367;DHT22;16877;48.810;9.282;2023-03-14T05:19:40;18.60;52.00
1367;DHT22;16877;48.810;9.282;2023-03-14T05:22:08;18.60;52.00
1367;DHT22;16877;48.810;9.282;2023-03-14T05:27:29;18.60;51.90
1367;DHT22;16877;48.810;9.282;2023-03-14T05:29:58;18.60;51.80
1367;DHT22;16877;48.810;9.282;2023-03-14T05:32:26;18.50;51.70
1367;DHT22;16877;48.810;9.282;2023-03-14T05:34:58;18.50;51.70
1367;DHT22;16877;48.810;9.282;2023-03-14T05:37:41;18.40;51.60
1367;DHT22;16877;48.810;9.282;2023-03-14T05:40:09;18.40;51.60
1367;DHT22;16877;48.810;9.282;2023-03-14T05:42:36;18.40;51.50
1367;DHT22;16877;48.810;9.282;2023-03-14T05:45:07;18.40;51.50
1367;DHT22;16877;48.810;9.282;2023-03-14T05:47:34;18.40;51.50
1367;DHT22;16877;48.810;9.282;2023-03-14T05:50:03;18.40;51.50
1367;DHT22;16877;48.810;9.282;2023-03-14T05:52:30;18.30;51.40
1367;DHT22;16877;48.810;9.282;2023-03-14T05:54:57;18.30;51.30
1367;DHT22;16877;48.810;9.282;2023-03-14T05:57:25;18.30;51.30
1367;DHT22;16877;48.810;9.282;2023-03-14T05:59:52;18.30;51.30
1367;DHT22;16877;48.810;9.282;2023-03-14T06:02:22;18.30;51.40
1367;DHT22;16877;48.810;9.282;2023-03-14T06:04:53;18.30;51.30
1367;DHT22;16877;48.810;9.282;2023-03-14T06:07:34;18.30;51.30
1367;DHT22;16877;48.810;9.282;2023-03-14T06:10:07;18.40;51.40
1367;DHT22;16877;48.810;9.282;2023-03-14T06:12:35;18.40;51.40
1367;DHT22;16877;48.810;9.282;2023-03-14T06:15:03;18.50;51.30
1367;DHT22;16877;48.810;9.282;2023-03-14T06:17:53;18.50;51.30
1367;DHT22;16877;48.810;9.282;2023-03-14T06:20:26;18.50;51.30
1367;DHT22;16877;48.810;9.282;2023-03-14T06:23:04;18.50;51.30
1367;DHT22;16877;48.810;9.282;2023-03-14T06:25:33;18.60;51.40
1367;DHT22;16877;48.810;9.282;2023-03-14T06:28:16;18.60;51.40
1367;DHT22;16877;48.810;9.282;2023-03-14T06:30:55;18.70;51.40
1367;DHT22;16877;48.810;9.282;2023-03-14T06:33:25;18.70;51.30
1367;DHT22;16877;48.810;9.282;2023-03-14T06:35:58;18.70;51.30
1367;DHT22;16877;48.810;9.282;2023-03-14T06:38:41;18.70;51.10
1367;DHT22;16877;48.810;9.282;2023-03-14T06:41:08;18.70;51.20
1367;DHT22;16877;48.810;9.282;2023-03-14T06:43:36;18.70;51.20
1367;DHT22;16877;48.810;9.282;2023-03-14T06:46:03;18.60;51.00
1367;DHT22;16877;48.810;9.282;2023-03-14T06:48:33;18.60;50.90
1367;DHT22;16877;48.810;9.282;2023-03-14T06:51:01;18.70;51.00
1367;DHT22;16877;48.810;9.282;2023-03-14T06:53:48;18.60;50.90
1367;DHT22;16877;48.810;9.282;2023-03-14T06:56:18;18.60;51.00
1367;DHT22;16877;48.810;9.282;2023-03-14T06:58:45;18.80;54.70
1367;DHT22;16877;48.810;9.282;2023-03-14T07:01:23;19.40;60.90
1367;DHT22;16877;48.810;9.282;2023-03-14T07:04:08;20.10;59.60
1367;DHT22;16877;48.810;9.282;2023-03-14T07:06:36;20.80;58.30
1367;DHT22;16877;48.810;9.282;2023-03-14T07:09:09;21.20;57.00
1367;DHT22;16877;48.810;9.282;2023-03-14T07:11:42;21.50;56.30
1367;DHT22;16877;48.810;9.282;2023-03-14T07:14:10;21.80;55.50
1367;DHT22;16877;48.810;9.282;2023-03-14T07:16:42;22.00;55.00
1367;DHT22;16877;48.810;9.282;2023-03-14T07:19:13;22.20;54.20
1367;DHT22;16877;48.810;9.282;2023-03-14T07:21:40;22.20;52.00
1367;DHT22;16877;48.810;9.282;2023-03-14T07:24:08;22.10;50.50
1367;DHT22;16877;48.810;9.282;2023-03-14T07:26:36;22.00;49.90
1367;DHT22;16877;48.810;9.282;2023-03-14T07:29:04;22.00;49.50
1367;DHT22;16877;48.810;9.282;2023-03-14T07:31:47;21.90;49.10
1367;DHT22;16877;48.810;9.282;2023-03-14T07:34:16;21.80;48.90
1367;DHT22;16877;48.810;9.282;2023-03-14T07:36:43;21.90;48.90
1367;DHT22;16877;48.810;9.282;2023-03-14T07:39:26;21.90;47.90
1367;DHT22;16877;48.810;9.282;2023-03-14T07:41:54;21.80;48.00
1367;DHT22;16877;48.810;9.282;2023-03-14T07:44:21;22.00;48.20
1367;DHT22;16877;48.810;9.282;2023-03-14T07:46:50;22.00;48.20
1367;DHT22;16877;48.810;9.282;2023-03-14T07:49:20;22.10;48.00
1367;DHT22;16877;48.810;9.282;2023-03-14T07:51:47;22.20;47.80
1367;DHT22;16877;48.810;9.282;2023-03-14T07:54:16;22.30;47.70
1367;DHT22;16877;48.810;9.282;2023-03-14T07:56:47;22.40;47.60
1367;DHT22;16877;48.810;9.282;2023-03-14T07:59:14;22.40;47.30
1367;DHT22;16877;48.810;9.282;2023-03-14T08:01:42;22.60;47.10
1367;DHT22;16877;48.810;9.282;2023-03-14T08:04:09;22.60;47.00
1367;DHT22;16877;48.810;9.282;2023-03-14T08:06:43;22.70;46.50
1367;DHT22;16877;48.810;9.282;2023-03-14T08:09:10;22.80;46.20
1367;DHT22;16877;48.810;9.282;2023-03-14T08:11:38;22.70;45.80
1367;DHT22;16877;48.810;9.282;2023-03-14T08:14:05;22.70;46.10
1367;DHT22;16877;48.810;9.282;2023-03-14T08:16:33;22.70;46.10
1367;DHT22;16877;48.810;9.282;2023-03-14T08:19:00;22.80;46.20
1367;DHT22;16877;48.810;9.282;2023-03-14T08:21:28;22.90;45.80
1367;DHT22;16877;48.810;9.282;2023-03-14T08:23:58;23.00;45.90
1367;DHT22;16877;48.810;9.282;2023-03-14T08:26:26;23.00;45.50
1367;DHT22;16877;48.810;9.282;2023-03-14T08:28:54;23.00;45.40
1367;DHT22;16877;48.810;9.282;2023-03-14T08:31:21;23.10;45.30
1367;DHT22;16877;48.810;9.282;2023-03-14T08:33:57;23.20;45.10
1367;DHT22;16877;48.810;9.282;2023-03-14T08:36:52;23.30;44.90
1367;DHT22;16877;48.810;9.282;2023-03-14T08:39:25;23.20;44.90
1367;DHT22;16877;48.810;9.282;2023-03-14T08:41:52;23.30;44.80
1367;DHT22;16877;48.810;9.282;2023-03-14T08:44:19;23.30;44.50
1367;DHT22;16877;48.810;9.282;2023-03-14T08:46:47;23.30;44.50
1367;DHT22;16877;48.810;9.282;2023-03-14T08:49:15;23.50;44.60
1367;DHT22;16877;48.810;9.282;2023-03-14T08:51:42;23.70;44.60
1367;DHT22;16877;48.810;9.282;2023-03-14T08:54:11;23.80;44.20
1367;DHT22;16877;48.810;9.282;2023-03-14T08:56:40;23.70;44.00
1367;DHT22;16877;48.810;9.282;2023-03-14T08:59:07;23.60;43.50
1367;DHT22;16877;48.810;9.282;2023-03-14T09:01:36;23.50;43.20
1367;DHT22;16877;48.810;9.282;2023-03-14T09:04:18;23.30;43.00
1367;DHT22;16877;48.810;9.282;2023-03-14T09:06:46;23.20;43.10
1367;DHT22;16877;48.810;9.282;2023-03-14T09:09:13;23.10;43.00
1367;DHT22;16877;48.810;9.282;2023-03-14T09:11:45;22.90;42.80
1367;DHT22;16877;48.810;9.282;2023-03-14T09:14:12;22.70;43.00
1367;DHT22;16877;48.810;9.282;2023-03-14T09:16:40;22.60;43.20
1367;DHT22;16877;48.810;9.282;2023-03-14T09:19:12;22.60;43.50
1367;DHT22;16877;48.810;9.282;2023-03-14T09:21:40;22.60;43.70
1367;DHT22;16877;48.810;9.282;2023-03-14T09:24:08;22.50;43.90
1367;DHT22;16877;48.810;9.282;2023-03-14T09:26:52;22.50;43.90
1367;DHT22;16877;48.810;9.282;2023-03-14T09:29:19;22.30;44.00
1367;DHT22;16877;48.810;9.282;2023-03-14T09:31:47;22.30;44.40
1367;DHT22;16877;48.810;9.282;2023-03-14T09:34:15;22.40;44.60
1367;DHT22;16877;48.810;9.282;2023-03-14T09:36:44;22.50;44.90
1367;DHT22;16877;48.810;9.282;2023-03-14T09:39:11;22.50;45.00
1367;DHT22;16877;48.810;9.282;2023-03-14T09:41:41;22.60;45.20
1367;DHT22;16877;48.810;9.282;2023-03-14T09:44:14;22.80;45.20
1367;DHT22;16877;48.810;9.282;2023-03-14T09:46:45;22.90;45.10
1367;DHT22;16877;48.810;9.282;2023-03-14T09:49:20;23.10;44.90
1367;DHT22;16877;48.810;9.282;2023-03-14T09:51:50;23.40;44.60
1367;DHT22;16877;48.810;9.282;2023-03-14T09:54:28;23.30;44.50
1367;DHT22;16877;48.810;9.282;2023-03-14T09:56:58;23.20;44.40
1367;DHT22;16877;48.810;9.282;2023-03-14T09:59:29;23.20;44.30
1367;DHT22;16877;48.810;9.282;2023-03-14T10:01:58;23.10;44.20
1367;DHT22;16877;48.810;9.282;2023-03-14T10:04:28;22.90;44.10
1367;DHT22;16877;48.810;9.282;2023-03-14T10:06:58;22.80;44.10
1367;DHT22;16877;48.810;9.282;2023-03-14T10:09:26;22.70;43.80
1367;DHT22;16877;48.810;9.282;2023-03-14T10:11:55;22.60;43.80
1367;DHT22;16877;48.810;9.282;2023-03-14T10:14:32;22.60;43.90
1367;DHT22;16877;48.810;9.282;2023-03-14T10:17:08;22.60;44.10
1367;DHT22;16877;48.810;9.282;2023-03-14T10:19:37;23.20;44.40
1367;DHT22;16877;48.810;9.282;2023-03-14T10:22:05;23.60;44.40
1367;DHT22;16877;48.810;9.282;2023-03-14T10:24:46;24.20;44.00
1367;DHT22;16877;48.810;9.282;2023-03-14T10:27:19;24.60;43.60
1367;DHT22;16877;48.810;9.282;2023-03-14T10:29:55;24.90;43.10
1367;DHT22;16877;48.810;9.282;2023-03-14T10:32:38;24.90;42.90
1367;DHT22;16877;48.810;9.282;2023-03-14T10:35:22;25.50;42.40
1367;DHT22;16877;48.810;9.282;2023-03-14T10:37:53;25.70;41.80
1367;DHT22;16877;48.810;9.282;2023-03-14T10:40:26;25.50;41.60
1367;DHT22;16877;48.810;9.282;2023-03-14T10:42:54;25.20;41.20
1367;DHT22;16877;48.810;9.282;2023-03-14T10:45:32;25.00;41.40
1367;DHT22;16877;48.810;9.282;2023-03-14T10:48:16;24.90;41.30
1367;DHT22;16877;48.810;9.282;2023-03-14T10:50:50;24.70;41.50
1367;DHT22;16877;48.810;9.282;2023-03-14T10:53:20;24.60;41.50
1367;DHT22;16877;48.810;9.282;2023-03-14T10:55:49;24.60;41.60
1367;DHT22;16877;48.810;9.282;2023-03-14T10:58:24;24.40;41.70
1367;DHT22;16877;48.810;9.282;2023-03-14T11:01:00;24.20;41.80
1367;DHT22;16877;48.810;9.282;2023-03-14T11:03:30;24.00;41.70
1367;DHT22;16877;48.810;9.282;2023-03-14T11:06:21;23.80;42.10
1367;DHT22;16877;48.810;9.282;2023-03-14T11:08:57;23.60;42.10
1367;DHT22;16877;48.810;9.282;2023-03-14T11:11:35;23.40;42.20
1367;DHT22;16877;48.810;9.282;2023-03-14T11:14:25;23.20;44.80
1367;DHT22;16877;48.810;9.282;2023-03-14T11:17:14;23.00;43.30
1367;DHT22;16877;48.810;9.282;2023-03-14T11:19:53;22.90;43.40
1367;DHT22;16877;48.810;9.282;2023-03-14T11:22:32;22.70;43.40
1367;DHT22;16877;48.810;9.282;2023-03-14T11:25:15;22.50;43.50
1367;DHT22;16877;48.810;9.282;2023-03-14T11:28:09;22.40;43.80
1367;DHT22;16877;48.810;9.282;2023-03-14T11:30:41;22.20;44.10
1367;DHT22;16877;48.810;9.282;2023-03-14T11:33:16;22.10;44.80
1367;DHT22;16877;48.810;9.282;2023-03-14T11:35:49;21.90;45.60
1367;DHT22;16877;48.810;9.282;2023-03-14T11:38:30;21.80;46.20
1367;DHT22;16877;48.810;9.282;2023-03-14T11:40:59;21.70;46.60
1367;DHT22;16877;48.810;9.282;2023-03-14T11:43:29;21.60;47.00
1367;DHT22;16877;48.810;9.282;2023-03-14T11:46:08;21.50;47.00
1367;DHT22;16877;48.810;9.282;2023-03-14T11:48:48;21.50;47.50
1367;DHT22;16877;48.810;9.282;2023-03-14T11:51:29;21.40;48.30
1367;DHT22;16877;48.810;9.282;2023-03-14T11:54:01;21.40;47.80
1367;DHT22;16877;48.810;9.282;2023-03-14T11:56:33;21.30;47.70
1367;DHT22;16877;48.810;9.282;2023-03-14T11:59:05;21.20;47.40
1367;DHT22;16877;48.810;9.282;2023-03-14T12:01:40;21.10;47.40
1367;DHT22;16877;48.810;9.282;2023-03-14T12:04:42;21.00;47.50
1367;DHT22;16877;48.810;9.282;2023-03-14T12:07:32;21.00;47.90
1367;DHT22;16877;48.810;9.282;2023-03-14T12:10:13;20.90;48.20
1367;DHT22;16877;48.810;9.282;2023-03-14T12:12:43;20.80;48.30
1367;DHT22;16877;48.810;9.282;2023-03-14T12:15:38;20.70;48.30
1367;DHT22;16877;48.810;9.282;2023-03-14T12:18:26;20.80;48.40
1367;DHT22;16877;48.810;9.282;2023-03-14T12:21:06;20.80;48.50
1367;DHT22;16877;48.810;9.282;2023-03-14T12:23:37;20.70;48.40
1367;DHT22;16877;48.810;9.282;2023-03-14T12:26:16;20.70;48.40
1367;DHT22;16877;48.810;9.282;2023-03-14T12:28:49;20.60;48.20
1367;DHT22;16877;48.810;9.282;2023-03-14T12:31:37;20.60;48.60
1367;DHT22;16877;48.810;9.282;2023-03-14T12:34:27;20.70;50.40
1367;DHT22;16877;48.810;9.282;2023-03-14T12:37:01;20.80;49.00
1367;DHT22;16877;48.810;9.282;2023-03-14T12:39:37;20.80;48.30
1367;DHT22;16877;48.810;9.282;2023-03-14T12:42:11;20.80;48.50
1367;DHT22;16877;48.810;9.282;2023-03-14T12:44:44;21.20;47.70
1367;DHT22;16877;48.810;9.282;2023-03-14T12:50:16;21.90;46.10
1367;DHT22;16877;48.810;9.282;2023-03-14T12:52:58;21.80;45.10
1367;DHT22;16877;48.810;9.282;2023-03-14T12:55:36;22.10;45.10
1367;DHT22;16877;48.810;9.282;2023-03-14T12:58:18;22.50;43.30
1367;DHT22;16877;48.810;9.282;2023-03-14T13:00:54;22.50;42.10
1367;DHT22;16877;48.810;9.282;2023-03-14T13:03:25;22.60;41.40
1367;DHT22;16877;48.810;9.282;2023-03-14T13:05:56;22.90;41.00
1367;DHT22;16877;48.810;9.282;2023-03-14T13:08:37;22.90;40.10
1367;DHT22;16877;48.810;9.282;2023-03-14T13:11:08;23.40;39.70
1367;DHT22;16877;48.810;9.282;2023-03-14T13:13:42;23.60;38.60
1367;DHT22;16877;48.810;9.282;2023-03-14T13:16:16;23.60;38.20
1367;DHT22;16877;48.810;9.282;2023-03-14T13:18:46;23.40;37.70
1367;DHT22;16877;48.810;9.282;2023-03-14T13:21:16;23.00;37.50
1367;DHT22;16877;48.810;9.282;2023-03-14T13:23:57;22.80;37.40
1367;DHT22;16877;48.810;9.282;2023-03-14T13:26:41;22.40;37.10
1367;DHT22;16877;48.810;9.282;2023-03-14T13:29:14;22.40;38.30
1367;DHT22;16877;48.810;9.282;2023-03-14T13:31:43;22.30;37.50
1367;DHT22;16877;48.810;9.282;2023-03-14T13:34:12;22.30;37.70
1367;DHT22;16877;48.810;9.282;2023-03-14T13:36:39;22.30;37.20
1367;DHT22;16877;48.810;9.282;2023-03-14T13:39:10;22.30;37.00
1367;DHT22;16877;48.810;9.282;2023-03-14T13:41:39;22.20;36.70
1367;DHT22;16877;48.810;9.282;2023-03-14T13:44:08;22.00;36.30
1367;DHT22;16877;48.810;9.282;2023-03-14T13:46:36;21.90;36.30
1367;DHT22;16877;48.810;9.282;2023-03-14T13:49:06;21.80;36.10
1367;DHT22;16877;48.810;9.282;2023-03-14T13:51:34;21.60;36.00
1367;DHT22;16877;48.810;9.282;2023-03-14T13:54:01;21.80;53.90
1367;DHT22;16877;48.810;9.282;2023-03-14T13:56:32;22.40;54.70
1367;DHT22;16877;48.810;9.282;2023-03-14T13:59:24;23.10;52.70
1367;DHT22;16877;48.810;9.282;2023-03-14T14:01:52;23.50;50.80
1367;DHT22;16877;48.810;9.282;2023-03-14T14:04:22;23.80;50.10
1367;DHT22;16877;48.810;9.282;2023-03-14T14:07:07;23.90;49.10
1367;DHT22;16877;48.810;9.282;2023-03-14T14:09:38;24.00;48.80
1367;DHT22;16877;48.810;9.282;2023-03-14T14:12:13;23.90;42.20
1367;DHT22;16877;48.810;9.282;2023-03-14T14:14:44;23.60;38.30
1367;DHT22;16877;48.810;9.282;2023-03-14T14:17:27;23.10;36.50
1367;DHT22;16877;48.810;9.282;2023-03-14T14:19:57;22.60;35.40
1367;DHT22;16877;48.810;9.282;2023-03-14T14:22:25;22.30;35.00
1367;DHT22;16877;48.810;9.282;2023-03-14T14:24:53;22.00;34.50
1367;DHT22;16877;48.810;9.282;2023-03-14T14:27:28;21.70;33.90
1367;DHT22;16877;48.810;9.282;2023-03-14T14:29:59;21.50;34.10
1367;DHT22;16877;48.810;9.282;2023-03-14T14:32:26;21.40;34.10
1367;DHT22;16877;48.810;9.282;2023-03-14T14:34:58;21.20;34.20
1367;DHT22;16877;48.810;9.282;2023-03-14T14:37:27;21.10;33.90
1367;DHT22;16877;48.810;9.282;2023-03-14T14:40:17;20.90;33.90
1367;DHT22;16877;48.810;9.282;2023-03-14T14:42:49;20.60;34.00
1367;DHT22;16877;48.810;9.282;2023-03-14T14:45:19;20.40;33.80
1367;DHT22;16877;48.810;9.282;2023-03-14T14:47:52;20.30;34.20
1367;DHT22;16877;48.810;9.282;2023-03-14T14:50:28;20.20;34.00
1367;DHT22;16877;48.810;9.282;2023-03-14T14:52:56;20.00;33.90
1367;DHT22;16877;48.810;9.282;2023-03-14T14:55:30;19.80;34.30
1367;DHT22;16877;48.810;9.282;2023-03-14T14:58:12;19.90;34.80
1367;DHT22;16877;48.810;9.282;2023-03-14T15:00:41;19.80;34.30
1367;DHT22;16877;48.810;9.282;2023-03-14T15:03:17;19.70;34.60
1367;DHT22;16877;48.810;9.282;2023-03-14T15:05:44;19.60;34.60
1367;DHT22;16877;48.810;9.282;2023-03-14T15:08:11;19.50;34.80
1367;DHT22;16877;48.810;9.282;2023-03-14T15:10:39;19.60;35.00
1367;DHT22;16877;48.810;9.282;2023-03-14T15:13:23;19.60;35.30
1367;DHT22;16877;48.810;9.282;2023-03-14T15:15:50;19.70;35.20
1367;DHT22;16877;48.810;9.282;2023-03-14T15:18:23;19.80;35.30
1367;DHT22;16877;48.810;9.282;2023-03-14T15:20:51;20.10;35.40
1367;DHT22;16877;48.810;9.282;2023-03-14T15:23:20;20.60;35.30
1367;DHT22;16877;48.810;9.282;2023-03-14T15:25:47;20.90;35.00
1367;DHT22;16877;48.810;9.282;2023-03-14T15:28:17;20.90;34.60
1367;DHT22;16877;48.810;9.282;2023-03-14T15:30:47;20.90;34.20
1367;DHT22;16877;48.810;9.282;2023-03-14T15:33:16;21.40;34.60
1367;DHT22;16877;48.810;9.282;2023-03-14T15:35:45;21.80;34.60
1367;DHT22;16877;48.810;9.282;2023-03-14T15:38:15;21.90;34.20
1367;DHT22;16877;48.810;9.282;2023-03-14T15:40:48;22.10;34.00
1367;DHT22;16877;48.810;9.282;2023-03-14T15:46:25;22.40;33.20
1367;DHT22;16877;48.810;9.282;2023-03-14T15:49:07;22.70;33.30
1367;DHT22;16877;48.810;9.282;2023-03-14T15:51:51;22.40;33.00
1367;DHT22;16877;48.810;9.282;2023-03-14T15:54:23;22.50;33.20
1367;DHT22;16877;48.810;9.282;2023-03-14T15:56:55;22.40;33.10
1367;DHT22;16877;48.810;9.282;2023-03-14T15:59:36;22.30;33.10
1367;DHT22;16877;48.810;9.282;2023-03-14T16:02:05;22.00;33.20
1367;DHT22;16877;48.810;9.282;2023-03-14T16:04:33;22.00;33.40
1367;DHT22;16877;48.810;9.282;2023-03-14T16:07:00;22.00;33.60
1367;DHT22;16877;48.810;9.282;2023-03-14T16:09:28;22.10;33.60
1367;DHT22;16877;48.810;9.282;2023-03-14T16:11:55;22.40;33.80
1367;DHT22;16877;48.810;9.282;2023-03-14T16:14:25;22.60;33.80
1367;DHT22;16877;48.810;9.282;2023-03-14T16:16:52;22.90;33.70
1367;DHT22;16877;48.810;9.282;2023-03-14T16:19:25;23.10;33.70
1367;DHT22;16877;48.810;9.282;2023-03-14T16:21:53;23.20;33.20
1367;DHT22;16877;48.810;9.282;2023-03-14T16:24:23;23.20;33.00